This is the latest recevied weather packets stored in our database for station/object OK3FM-14. If no packets are shown the sender has not sent any weather packets the latest 10 day(s).
| Time | Temp. | Humidity | Pressure | Rain* | Wind** | Luminosity | Snow |
|---|---|---|---|---|---|---|---|
| 1787924247 | 22.78° C | 59% | 1015.5 hPa | - | - | - | - |
| 1787923647 | 22.78° C | 60% | 1015.4 hPa | - | - | - | - |
| 1787923050 | 22.78° C | 61% | 1015.5 hPa | - | - | - | - |
| 1787922447 | 22.22° C | 63% | 1015.4 hPa | - | - | - | - |
| 1787921847 | 21.67° C | 65% | 1015.7 hPa | - | - | - | - |
| 1787921247 | 21.11° C | 67% | 1016.2 hPa | - | - | - | - |
| 1787920647 | 21.11° C | 70% | 1016.7 hPa | - | - | - | - |
| 1787920047 | 20.56° C | 70% | 1017.3 hPa | - | - | - | - |
| 1787919447 | 21.67° C | 67% | 1017.2 hPa | - | - | - | - |
| 1787918847 | 22.22° C | 60% | 1017.4 hPa | - | - | - | - |
| 1787918247 | 22.78° C | 55% | 1017.5 hPa | - | - | - | - |
| 1787917647 | 23.89° C | 55% | 1015 hPa | - | - | - | - |
| 1787917047 | 23.89° C | 54% | 1014.7 hPa | - | - | - | - |
| 1787916447 | 23.89° C | 54% | 1014.1 hPa | - | - | - | - |
| 1787915847 | 23.89° C | 54% | 1013.8 hPa | - | - | - | - |
| 1787915247 | 23.89° C | 53% | 1013.7 hPa | - | - | - | - |
| 1787914647 | 23.33° C | 54% | 1013.6 hPa | - | - | - | - |
| 1787914047 | 23.33° C | 53% | 1013.5 hPa | - | - | - | - |
| 1787913447 | 23.33° C | 54% | 1013.6 hPa | - | - | - | - |
| 1787912847 | 22.78° C | 54% | 1014 hPa | - | - | - | - |
| 1787912257 | 22.22° C | 55% | 1014.4 hPa | - | - | - | - |
| 1787911646 | 22.22° C | 55% | 1014.6 hPa | - | - | - | - |
| 1787911046 | 22.22° C | 56% | 1014.5 hPa | - | - | - | - |
| 1787910446 | 22.22° C | 56% | 1014.6 hPa | - | - | - | - |
| 1787909846 | 21.67° C | 56% | 1014.6 hPa | - | - | - | - |
* Rain since midnight (hover to see other rain measurements)
** Current wind speed in m/s (hover to see current wind gust speed)